sensor_id;sensor_type;location;lat;lon;timestamp;P1;durP1;ratioP1;P2;durP2;ratioP2
10154;SDS011;5118;48.570;7.916;2022-07-04T00:03:02;2.35;;;2.00;;
10154;SDS011;5118;48.570;7.916;2022-07-04T00:06:04;2.20;;;2.00;;
10154;SDS011;5118;48.570;7.916;2022-07-04T00:09:06;1.73;;;1.63;;
10154;SDS011;5118;48.570;7.916;2022-07-04T00:12:08;2.87;;;1.80;;
10154;SDS011;5118;48.570;7.916;2022-07-04T00:15:11;3.97;;;1.73;;
10154;SDS011;5118;48.570;7.916;2022-07-04T00:18:15;3.80;;;2.00;;
10154;SDS011;5118;48.570;7.916;2022-07-04T00:21:17;3.23;;;1.93;;
10154;SDS011;5118;48.570;7.916;2022-07-04T00:24:19;2.22;;;1.80;;
10154;SDS011;5118;48.570;7.916;2022-07-04T00:27:21;2.23;;;1.83;;
10154;SDS011;5118;48.570;7.916;2022-07-04T00:30:24;3.37;;;1.97;;
10154;SDS011;5118;48.570;7.916;2022-07-04T00:33:27;3.33;;;1.90;;
10154;SDS011;5118;48.570;7.916;2022-07-04T00:36:29;3.10;;;1.80;;
10154;SDS011;5118;48.570;7.916;2022-07-04T00:39:31;3.03;;;1.90;;
10154;SDS011;5118;48.570;7.916;2022-07-04T00:42:33;2.47;;;1.87;;
10154;SDS011;5118;48.570;7.916;2022-07-04T00:45:37;4.13;;;1.80;;
10154;SDS011;5118;48.570;7.916;2022-07-04T00:48:40;5.97;;;1.80;;
10154;SDS011;5118;48.570;7.916;2022-07-04T00:51:43;3.17;;;1.80;;
10154;SDS011;5118;48.570;7.916;2022-07-04T00:54:46;3.40;;;1.80;;
10154;SDS011;5118;48.570;7.916;2022-07-04T00:57:49;2.07;;;1.70;;
10154;SDS011;5118;48.570;7.916;2022-07-04T01:00:52;2.83;;;1.70;;
10154;SDS011;5118;48.570;7.916;2022-07-04T01:03:55;2.30;;;2.00;;
10154;SDS011;5118;48.570;7.916;2022-07-04T01:06:58;7.00;;;1.80;;
10154;SDS011;5118;48.570;7.916;2022-07-04T01:10:00;2.50;;;1.90;;
10154;SDS011;5118;48.570;7.916;2022-07-04T01:13:04;2.30;;;1.70;;
10154;SDS011;5118;48.570;7.916;2022-07-04T01:16:07;2.80;;;1.87;;
10154;SDS011;5118;48.570;7.916;2022-07-04T01:19:10;3.27;;;1.70;;
10154;SDS011;5118;48.570;7.916;2022-07-04T01:22:13;1.97;;;1.70;;
10154;SDS011;5118;48.570;7.916;2022-07-04T01:25:16;2.17;;;1.90;;
10154;SDS011;5118;48.570;7.916;2022-07-04T01:28:18;3.33;;;1.80;;
10154;SDS011;5118;48.570;7.916;2022-07-04T01:31:20;2.00;;;1.80;;
10154;SDS011;5118;48.570;7.916;2022-07-04T01:34:22;2.80;;;1.70;;
10154;SDS011;5118;48.570;7.916;2022-07-04T01:37:31;4.33;;;2.10;;
10154;SDS011;5118;48.570;7.916;2022-07-04T01:40:34;3.03;;;1.90;;
10154;SDS011;5118;48.570;7.916;2022-07-04T01:43:36;3.97;;;1.80;;
10154;SDS011;5118;48.570;7.916;2022-07-04T01:46:38;3.73;;;1.90;;
10154;SDS011;5118;48.570;7.916;2022-07-04T01:49:40;3.70;;;1.80;;
10154;SDS011;5118;48.570;7.916;2022-07-04T01:52:43;2.00;;;1.90;;
10154;SDS011;5118;48.570;7.916;2022-07-04T01:55:46;2.97;;;1.90;;
10154;SDS011;5118;48.570;7.916;2022-07-04T01:58:48;2.67;;;1.80;;
10154;SDS011;5118;48.570;7.916;2022-07-04T02:01:43;2.07;;;1.80;;
10154;SDS011;5118;48.570;7.916;2022-07-04T02:04:37;3.40;;;1.90;;
10154;SDS011;5118;48.570;7.916;2022-07-04T02:07:39;2.03;;;1.80;;
10154;SDS011;5118;48.570;7.916;2022-07-04T02:10:42;1.80;;;1.70;;
10154;SDS011;5118;48.570;7.916;2022-07-04T02:13:45;2.67;;;1.80;;
10154;SDS011;5118;48.570;7.916;2022-07-04T02:16:46;2.80;;;1.80;;
10154;SDS011;5118;48.570;7.916;2022-07-04T02:19:48;3.10;;;1.80;;
10154;SDS011;5118;48.570;7.916;2022-07-04T02:22:50;2.60;;;2.07;;
10154;SDS011;5118;48.570;7.916;2022-07-04T02:25:53;2.23;;;2.00;;
10154;SDS011;5118;48.570;7.916;2022-07-04T02:28:56;3.70;;;1.93;;
10154;SDS011;5118;48.570;7.916;2022-07-04T02:31:58;4.47;;;1.90;;
10154;SDS011;5118;48.570;7.916;2022-07-04T02:35:00;3.73;;;1.77;;
10154;SDS011;5118;48.570;7.916;2022-07-04T02:38:02;3.67;;;2.00;;
10154;SDS011;5118;48.570;7.916;2022-07-04T02:41:05;3.63;;;2.00;;
10154;SDS011;5118;48.570;7.916;2022-07-04T02:44:08;2.03;;;1.90;;
10154;SDS011;5118;48.570;7.916;2022-07-04T02:47:11;4.80;;;1.80;;
10154;SDS011;5118;48.570;7.916;2022-07-04T02:50:13;2.40;;;2.00;;
10154;SDS011;5118;48.570;7.916;2022-07-04T02:53:15;2.53;;;1.90;;
10154;SDS011;5118;48.570;7.916;2022-07-04T02:56:18;2.70;;;2.00;;
10154;SDS011;5118;48.570;7.916;2022-07-04T02:59:21;3.40;;;2.17;;
10154;SDS011;5118;48.570;7.916;2022-07-04T03:02:23;3.83;;;2.10;;
10154;SDS011;5118;48.570;7.916;2022-07-04T03:05:25;4.23;;;2.20;;
10154;SDS011;5118;48.570;7.916;2022-07-04T03:08:28;4.00;;;2.17;;
10154;SDS011;5118;48.570;7.916;2022-07-04T03:11:31;2.57;;;2.20;;
10154;SDS011;5118;48.570;7.916;2022-07-04T03:14:34;4.77;;;2.10;;
10154;SDS011;5118;48.570;7.916;2022-07-04T03:17:36;5.33;;;2.33;;
10154;SDS011;5118;48.570;7.916;2022-07-04T03:20:38;4.77;;;2.20;;
10154;SDS011;5118;48.570;7.916;2022-07-04T03:23:40;2.87;;;2.37;;
10154;SDS011;5118;48.570;7.916;2022-07-04T03:26:52;5.60;;;2.50;;
10154;SDS011;5118;48.570;7.916;2022-07-04T03:29:55;4.13;;;2.60;;
10154;SDS011;5118;48.570;7.916;2022-07-04T03:32:57;5.13;;;2.63;;
10154;SDS011;5118;48.570;7.916;2022-07-04T03:36:00;4.20;;;2.60;;
10154;SDS011;5118;48.570;7.916;2022-07-04T03:39:02;2.93;;;2.30;;
10154;SDS011;5118;48.570;7.916;2022-07-04T03:42:06;2.60;;;2.40;;
10154;SDS011;5118;48.570;7.916;2022-07-04T03:45:09;4.00;;;2.53;;
10154;SDS011;5118;48.570;7.916;2022-07-04T03:48:12;3.13;;;2.20;;
10154;SDS011;5118;48.570;7.916;2022-07-04T03:51:14;2.90;;;2.57;;
10154;SDS011;5118;48.570;7.916;2022-07-04T03:54:16;3.83;;;2.27;;
10154;SDS011;5118;48.570;7.916;2022-07-04T03:57:20;3.53;;;2.50;;
10154;SDS011;5118;48.570;7.916;2022-07-04T04:00:16;2.53;;;2.33;;
10154;SDS011;5118;48.570;7.916;2022-07-04T04:03:12;4.00;;;2.37;;
10154;SDS011;5118;48.570;7.916;2022-07-04T04:06:43;3.97;;;2.43;;
10154;SDS011;5118;48.570;7.916;2022-07-04T04:09:45;6.50;;;2.40;;
10154;SDS011;5118;48.570;7.916;2022-07-04T04:12:48;4.67;;;2.30;;
10154;SDS011;5118;48.570;7.916;2022-07-04T04:15:51;7.67;;;2.30;;
10154;SDS011;5118;48.570;7.916;2022-07-04T04:18:53;4.40;;;2.47;;
10154;SDS011;5118;48.570;7.916;2022-07-04T04:21:55;3.97;;;2.37;;
10154;SDS011;5118;48.570;7.916;2022-07-04T04:24:57;3.77;;;2.67;;
10154;SDS011;5118;48.570;7.916;2022-07-04T04:28:00;4.27;;;2.30;;
10154;SDS011;5118;48.570;7.916;2022-07-04T04:31:03;5.97;;;2.50;;
10154;SDS011;5118;48.570;7.916;2022-07-04T04:34:05;3.03;;;2.30;;
10154;SDS011;5118;48.570;7.916;2022-07-04T04:37:07;3.63;;;2.33;;
10154;SDS011;5118;48.570;7.916;2022-07-04T04:40:09;4.50;;;2.43;;
10154;SDS011;5118;48.570;7.916;2022-07-04T04:43:14;4.70;;;2.40;;
10154;SDS011;5118;48.570;7.916;2022-07-04T04:46:17;2.73;;;2.40;;
10154;SDS011;5118;48.570;7.916;2022-07-04T04:49:19;2.40;;;2.20;;
10154;SDS011;5118;48.570;7.916;2022-07-04T04:52:21;2.83;;;2.40;;
10154;SDS011;5118;48.570;7.916;2022-07-04T04:55:23;2.60;;;2.40;;
10154;SDS011;5118;48.570;7.916;2022-07-04T04:58:26;2.50;;;2.30;;
10154;SDS011;5118;48.570;7.916;2022-07-04T05:01:29;5.50;;;2.47;;
10154;SDS011;5118;48.570;7.916;2022-07-04T05:04:31;4.33;;;2.50;;
10154;SDS011;5118;48.570;7.916;2022-07-04T05:07:33;3.10;;;2.70;;
10154;SDS011;5118;48.570;7.916;2022-07-04T05:10:35;6.93;;;2.53;;
10154;SDS011;5118;48.570;7.916;2022-07-04T05:13:38;3.83;;;2.93;;
10154;SDS011;5118;48.570;7.916;2022-07-04T05:16:41;3.83;;;2.53;;
10154;SDS011;5118;48.570;7.916;2022-07-04T05:19:43;2.73;;;2.43;;
10154;SDS011;5118;48.570;7.916;2022-07-04T05:22:45;2.43;;;2.17;;
10154;SDS011;5118;48.570;7.916;2022-07-04T05:25:47;2.57;;;1.90;;
10154;SDS011;5118;48.570;7.916;2022-07-04T05:28:51;3.97;;;2.33;;
10154;SDS011;5118;48.570;7.916;2022-07-04T05:31:54;2.50;;;2.23;;
10154;SDS011;5118;48.570;7.916;2022-07-04T05:34:56;3.33;;;2.03;;
10154;SDS011;5118;48.570;7.916;2022-07-04T05:37:58;4.03;;;2.57;;
10154;SDS011;5118;48.570;7.916;2022-07-04T05:41:00;3.37;;;2.30;;
10154;SDS011;5118;48.570;7.916;2022-07-04T05:44:04;6.83;;;2.17;;
10154;SDS011;5118;48.570;7.916;2022-07-04T05:47:07;4.17;;;2.40;;
10154;SDS011;5118;48.570;7.916;2022-07-04T05:50:09;2.50;;;2.30;;
10154;SDS011;5118;48.570;7.916;2022-07-04T05:53:18;4.93;;;2.17;;
10154;SDS011;5118;48.570;7.916;2022-07-04T05:56:20;4.27;;;2.17;;
10154;SDS011;5118;48.570;7.916;2022-07-04T05:59:18;2.33;;;2.13;;
10154;SDS011;5118;48.570;7.916;2022-07-04T06:02:16;3.03;;;2.33;;
10154;SDS011;5118;48.570;7.916;2022-07-04T06:05:12;4.40;;;2.40;;
10154;SDS011;5118;48.570;7.916;2022-07-04T06:08:14;2.73;;;2.53;;
10154;SDS011;5118;48.570;7.916;2022-07-04T06:11:16;3.50;;;2.30;;
10154;SDS011;5118;48.570;7.916;2022-07-04T06:14:19;2.90;;;2.20;;
10154;SDS011;5118;48.570;7.916;2022-07-04T06:17:22;4.00;;;2.23;;
10154;SDS011;5118;48.570;7.916;2022-07-04T06:20:24;3.63;;;2.10;;
10154;SDS011;5118;48.570;7.916;2022-07-04T06:23:26;3.50;;;2.20;;
10154;SDS011;5118;48.570;7.916;2022-07-04T06:26:28;2.83;;;2.00;;
10154;SDS011;5118;48.570;7.916;2022-07-04T06:29:31;4.33;;;2.60;;
10154;SDS011;5118;48.570;7.916;2022-07-04T06:32:41;3.43;;;2.23;;
10154;SDS011;5118;48.570;7.916;2022-07-04T06:35:47;3.45;;;2.20;;
10154;SDS011;5118;48.570;7.916;2022-07-04T06:38:48;4.03;;;2.25;;
10154;SDS011;5118;48.570;7.916;2022-07-04T06:41:51;4.47;;;2.33;;
10154;SDS011;5118;48.570;7.916;2022-07-04T06:44:54;2.75;;;2.33;;
10154;SDS011;5118;48.570;7.916;2022-07-04T06:47:57;5.40;;;2.30;;
10154;SDS011;5118;48.570;7.916;2022-07-04T06:51:03;3.85;;;2.20;;
10154;SDS011;5118;48.570;7.916;2022-07-04T06:54:05;4.63;;;2.40;;
10154;SDS011;5118;48.570;7.916;2022-07-04T06:57:07;5.15;;;2.20;;
10154;SDS011;5118;48.570;7.916;2022-07-04T07:00:18;3.65;;;1.92;;
10154;SDS011;5118;48.570;7.916;2022-07-04T07:03:17;2.97;;;2.15;;
10154;SDS011;5118;48.570;7.916;2022-07-04T07:06:12;5.68;;;2.20;;
10154;SDS011;5118;48.570;7.916;2022-07-04T07:09:14;6.88;;;1.95;;
10154;SDS011;5118;48.570;7.916;2022-07-04T07:12:16;6.97;;;2.38;;
10154;SDS011;5118;48.570;7.916;2022-07-04T07:15:19;2.70;;;1.90;;
10154;SDS011;5118;48.570;7.916;2022-07-04T07:18:22;7.88;;;2.25;;
10154;SDS011;5118;48.570;7.916;2022-07-04T07:21:24;2.45;;;1.67;;
10154;SDS011;5118;48.570;7.916;2022-07-04T07:24:26;4.25;;;1.80;;
10154;SDS011;5118;48.570;7.916;2022-07-04T07:27:28;2.63;;;1.85;;
10154;SDS011;5118;48.570;7.916;2022-07-04T07:30:31;2.00;;;1.90;;
10154;SDS011;5118;48.570;7.916;2022-07-04T07:33:34;3.20;;;1.80;;
10154;SDS011;5118;48.570;7.916;2022-07-04T07:36:36;2.70;;;1.80;;
10154;SDS011;5118;48.570;7.916;2022-07-04T07:39:38;2.47;;;1.70;;
10154;SDS011;5118;48.570;7.916;2022-07-04T07:42:40;3.67;;;1.77;;
10154;SDS011;5118;48.570;7.916;2022-07-04T07:45:43;3.38;;;1.80;;
10154;SDS011;5118;48.570;7.916;2022-07-04T07:48:46;2.42;;;1.77;;
10154;SDS011;5118;48.570;7.916;2022-07-04T07:51:48;3.38;;;1.77;;
10154;SDS011;5118;48.570;7.916;2022-07-04T07:54:50;4.28;;;1.90;;
10154;SDS011;5118;48.570;7.916;2022-07-04T07:57:52;5.03;;;1.92;;
10154;SDS011;5118;48.570;7.916;2022-07-04T08:00:56;2.00;;;1.90;;
10154;SDS011;5118;48.570;7.916;2022-07-04T08:03:52;2.40;;;1.80;;
10154;SDS011;5118;48.570;7.916;2022-07-04T08:07:08;3.05;;;1.90;;
10154;SDS011;5118;48.570;7.916;2022-07-04T08:10:12;2.53;;;1.88;;
10154;SDS011;5118;48.570;7.916;2022-07-04T08:13:15;1.85;;;1.70;;
10154;SDS011;5118;48.570;7.916;2022-07-04T08:16:18;3.25;;;1.80;;
10154;SDS011;5118;48.570;7.916;2022-07-04T08:19:41;3.08;;;1.90;;
10154;SDS011;5118;48.570;7.916;2022-07-04T08:22:43;6.18;;;2.22;;
10154;SDS011;5118;48.570;7.916;2022-07-04T08:25:45;3.60;;;1.77;;
10154;SDS011;5118;48.570;7.916;2022-07-04T08:28:47;5.78;;;2.30;;
10154;SDS011;5118;48.570;7.916;2022-07-04T08:31:52;4.93;;;1.88;;
10154;SDS011;5118;48.570;7.916;2022-07-04T08:34:55;4.30;;;2.20;;
10154;SDS011;5118;48.570;7.916;2022-07-04T08:37:57;2.90;;;2.00;;
10154;SDS011;5118;48.570;7.916;2022-07-04T08:40:59;2.47;;;2.03;;
10154;SDS011;5118;48.570;7.916;2022-07-04T08:44:10;3.13;;;1.98;;
10154;SDS011;5118;48.570;7.916;2022-07-04T08:47:14;4.03;;;2.28;;
10154;SDS011;5118;48.570;7.916;2022-07-04T08:50:20;3.55;;;2.10;;
10154;SDS011;5118;48.570;7.916;2022-07-04T08:53:28;4.10;;;2.10;;
10154;SDS011;5118;48.570;7.916;2022-07-04T08:56:32;4.38;;;2.00;;
10154;SDS011;5118;48.570;7.916;2022-07-04T08:59:51;2.10;;;1.90;;
10154;SDS011;5118;48.570;7.916;2022-07-04T09:02:54;3.03;;;1.90;;
10154;SDS011;5118;48.570;7.916;2022-07-04T09:05:57;5.47;;;2.15;;
10154;SDS011;5118;48.570;7.916;2022-07-04T09:09:00;4.55;;;1.90;;
10154;SDS011;5118;48.570;7.916;2022-07-04T09:11:55;2.72;;;2.13;;
10154;SDS011;5118;48.570;7.916;2022-07-04T09:14:57;3.63;;;2.00;;
10154;SDS011;5118;48.570;7.916;2022-07-04T09:17:54;3.50;;;1.90;;
10154;SDS011;5118;48.570;7.916;2022-07-04T09:20:57;3.25;;;2.00;;
10154;SDS011;5118;48.570;7.916;2022-07-04T09:24:01;2.65;;;2.08;;
10154;SDS011;5118;48.570;7.916;2022-07-04T09:27:03;4.20;;;1.83;;
10154;SDS011;5118;48.570;7.916;2022-07-04T09:30:05;3.65;;;1.90;;
10154;SDS011;5118;48.570;7.916;2022-07-04T09:33:10;3.08;;;1.70;;
10154;SDS011;5118;48.570;7.916;2022-07-04T09:36:15;2.42;;;1.80;;
10154;SDS011;5118;48.570;7.916;2022-07-04T09:39:19;4.22;;;1.90;;
10154;SDS011;5118;48.570;7.916;2022-07-04T09:42:22;2.03;;;1.50;;
10154;SDS011;5118;48.570;7.916;2022-07-04T09:45:24;3.20;;;1.67;;
10154;SDS011;5118;48.570;7.916;2022-07-04T09:48:28;2.30;;;1.80;;
10154;SDS011;5118;48.570;7.916;2022-07-04T09:51:51;2.70;;;1.77;;
10154;SDS011;5118;48.570;7.916;2022-07-04T09:54:56;2.75;;;1.77;;
10154;SDS011;5118;48.570;7.916;2022-07-04T09:58:00;4.15;;;2.17;;
10154;SDS011;5118;48.570;7.916;2022-07-04T10:01:03;4.22;;;2.20;;
10154;SDS011;5118;48.570;7.916;2022-07-04T10:04:06;6.40;;;3.22;;
10154;SDS011;5118;48.570;7.916;2022-07-04T10:07:09;2.75;;;1.98;;
10154;SDS011;5118;48.570;7.916;2022-07-04T10:13:38;3.00;;;1.85;;
10154;SDS011;5118;48.570;7.916;2022-07-04T10:16:40;2.70;;;2.00;;
10154;SDS011;5118;48.570;7.916;2022-07-04T10:19:44;2.80;;;1.88;;
10154;SDS011;5118;48.570;7.916;2022-07-04T10:22:48;4.55;;;2.03;;
10154;SDS011;5118;48.570;7.916;2022-07-04T10:25:50;4.07;;;2.00;;
10154;SDS011;5118;48.570;7.916;2022-07-04T10:28:54;3.72;;;2.10;;
10154;SDS011;5118;48.570;7.916;2022-07-04T10:32:00;5.95;;;2.20;;
10154;SDS011;5118;48.570;7.916;2022-07-04T10:35:04;2.05;;;1.75;;
10154;SDS011;5118;48.570;7.916;2022-07-04T10:38:07;4.90;;;2.20;;
10154;SDS011;5118;48.570;7.916;2022-07-04T10:41:10;2.97;;;2.00;;
10154;SDS011;5118;48.570;7.916;2022-07-04T10:44:14;4.10;;;1.88;;
10154;SDS011;5118;48.570;7.916;2022-07-04T10:47:30;2.67;;;2.00;;
10154;SDS011;5118;48.570;7.916;2022-07-04T10:50:33;3.17;;;1.95;;
10154;SDS011;5118;48.570;7.916;2022-07-04T10:53:56;3.20;;;1.90;;
10154;SDS011;5118;48.570;7.916;2022-07-04T10:57:07;4.93;;;1.90;;
10154;SDS011;5118;48.570;7.916;2022-07-04T11:00:12;3.45;;;1.90;;
10154;SDS011;5118;48.570;7.916;2022-07-04T11:03:15;2.10;;;1.90;;
10154;SDS011;5118;48.570;7.916;2022-07-04T11:13:22;2.35;;;1.90;;
10154;SDS011;5118;48.570;7.916;2022-07-04T11:16:24;3.50;;;1.83;;
10154;SDS011;5118;48.570;7.916;2022-07-04T11:19:26;2.28;;;1.80;;
10154;SDS011;5118;48.570;7.916;2022-07-04T11:22:30;4.65;;;1.80;;
10154;SDS011;5118;48.570;7.916;2022-07-04T11:25:33;1.63;;;1.52;;
10154;SDS011;5118;48.570;7.916;2022-07-04T11:28:36;3.85;;;1.63;;
10154;SDS011;5118;48.570;7.916;2022-07-04T11:31:39;1.67;;;1.40;;
10154;SDS011;5118;48.570;7.916;2022-07-04T11:34:43;3.03;;;1.52;;
10154;SDS011;5118;48.570;7.916;2022-07-04T11:37:46;1.98;;;1.50;;
10154;SDS011;5118;48.570;7.916;2022-07-04T11:40:58;4.05;;;1.52;;
10154;SDS011;5118;48.570;7.916;2022-07-04T11:44:18;3.55;;;1.83;;
10154;SDS011;5118;48.570;7.916;2022-07-04T11:47:39;2.35;;;1.60;;
10154;SDS011;5118;48.570;7.916;2022-07-04T11:50:43;5.85;;;1.67;;
10154;SDS011;5118;48.570;7.916;2022-07-04T11:53:46;3.83;;;1.60;;
10154;SDS011;5118;48.570;7.916;2022-07-04T11:57:10;2.97;;;1.60;;
10154;SDS011;5118;48.570;7.916;2022-07-04T12:00:14;1.70;;;1.33;;
10154;SDS011;5118;48.570;7.916;2022-07-04T12:03:18;2.53;;;1.50;;
10154;SDS011;5118;48.570;7.916;2022-07-04T12:06:20;2.38;;;1.50;;
10154;SDS011;5118;48.570;7.916;2022-07-04T12:09:23;2.55;;;1.50;;
10154;SDS011;5118;48.570;7.916;2022-07-04T12:12:26;1.67;;;1.58;;
10154;SDS011;5118;48.570;7.916;2022-07-04T12:15:35;2.97;;;1.65;;
10154;SDS011;5118;48.570;7.916;2022-07-04T12:18:38;3.65;;;1.60;;
10154;SDS011;5118;48.570;7.916;2022-07-04T12:21:41;2.85;;;1.50;;
10154;SDS011;5118;48.570;7.916;2022-07-04T12:24:46;6.30;;;1.70;;
10154;SDS011;5118;48.570;7.916;2022-07-04T12:27:55;3.63;;;1.50;;
10154;SDS011;5118;48.570;7.916;2022-07-04T12:30:59;1.45;;;1.35;;
10154;SDS011;5118;48.570;7.916;2022-07-04T12:34:02;2.42;;;1.30;;
10154;SDS011;5118;48.570;7.916;2022-07-04T12:37:06;1.92;;;1.52;;
10154;SDS011;5118;48.570;7.916;2022-07-04T12:40:11;2.40;;;1.40;;
10154;SDS011;5118;48.570;7.916;2022-07-04T12:43:14;2.13;;;1.30;;
10154;SDS011;5118;48.570;7.916;2022-07-04T12:46:25;2.13;;;1.33;;
10154;SDS011;5118;48.570;7.916;2022-07-04T12:49:50;3.65;;;1.50;;
10154;SDS011;5118;48.570;7.916;2022-07-04T12:52:53;4.28;;;1.35;;
10154;SDS011;5118;48.570;7.916;2022-07-04T12:55:56;1.73;;;1.30;;
10154;SDS011;5118;48.570;7.916;2022-07-04T12:58:59;2.45;;;1.50;;
10154;SDS011;5118;48.570;7.916;2022-07-04T13:02:03;2.67;;;1.40;;
10154;SDS011;5118;48.570;7.916;2022-07-04T13:09:32;2.50;;;1.30;;
10154;SDS011;5118;48.570;7.916;2022-07-04T13:12:35;1.73;;;1.50;;
10154;SDS011;5118;48.570;7.916;2022-07-04T13:15:38;3.30;;;1.33;;
10154;SDS011;5118;48.570;7.916;2022-07-04T13:18:40;2.33;;;1.30;;
10154;SDS011;5118;48.570;7.916;2022-07-04T13:21:43;2.80;;;1.30;;
10154;SDS011;5118;48.570;7.916;2022-07-04T13:24:45;1.90;;;1.30;;
10154;SDS011;5118;48.570;7.916;2022-07-04T13:27:48;3.65;;;1.10;;
10154;SDS011;5118;48.570;7.916;2022-07-04T13:30:51;1.98;;;1.60;;
10154;SDS011;5118;48.570;7.916;2022-07-04T13:33:53;5.00;;;1.73;;
10154;SDS011;5118;48.570;7.916;2022-07-04T13:36:56;2.38;;;1.23;;
10154;SDS011;5118;48.570;7.916;2022-07-04T13:39:58;1.20;;;1.10;;
10154;SDS011;5118;48.570;7.916;2022-07-04T13:43:01;1.30;;;1.13;;
10154;SDS011;5118;48.570;7.916;2022-07-04T13:46:04;1.30;;;1.20;;
10154;SDS011;5118;48.570;7.916;2022-07-04T13:49:06;3.85;;;1.40;;
10154;SDS011;5118;48.570;7.916;2022-07-04T13:52:08;3.20;;;1.30;;
10154;SDS011;5118;48.570;7.916;2022-07-04T13:55:10;1.88;;;1.30;;
10154;SDS011;5118;48.570;7.916;2022-07-04T13:58:14;1.20;;;1.10;;
10154;SDS011;5118;48.570;7.916;2022-07-04T14:01:17;1.20;;;1.10;;
10154;SDS011;5118;48.570;7.916;2022-07-04T14:04:20;4.00;;;1.20;;
10154;SDS011;5118;48.570;7.916;2022-07-04T14:07:22;1.65;;;1.10;;
10154;SDS011;5118;48.570;7.916;2022-07-04T14:10:25;3.60;;;1.40;;
10154;SDS011;5118;48.570;7.916;2022-07-04T14:13:29;1.17;;;1.10;;
10154;SDS011;5118;48.570;7.916;2022-07-04T14:16:33;1.83;;;1.10;;
10154;SDS011;5118;48.570;7.916;2022-07-04T14:19:36;2.83;;;1.23;;
10154;SDS011;5118;48.570;7.916;2022-07-04T14:22:38;2.03;;;1.10;;
10154;SDS011;5118;48.570;7.916;2022-07-04T14:25:41;3.85;;;1.20;;
10154;SDS011;5118;48.570;7.916;2022-07-04T14:28:44;3.55;;;1.10;;
10154;SDS011;5118;48.570;7.916;2022-07-04T14:31:47;1.17;;;1.08;;
10154;SDS011;5118;48.570;7.916;2022-07-04T14:34:49;1.77;;;1.10;;
10154;SDS011;5118;48.570;7.916;2022-07-04T14:37:57;3.45;;;1.30;;
10154;SDS011;5118;48.570;7.916;2022-07-04T14:40:59;1.80;;;1.20;;
10154;SDS011;5118;48.570;7.916;2022-07-04T14:44:08;4.82;;;1.40;;
10154;SDS011;5118;48.570;7.916;2022-07-04T14:47:11;1.25;;;1.13;;
10154;SDS011;5118;48.570;7.916;2022-07-04T14:50:13;5.53;;;1.20;;
10154;SDS011;5118;48.570;7.916;2022-07-04T14:53:15;3.15;;;1.10;;
10154;SDS011;5118;48.570;7.916;2022-07-04T14:56:18;1.83;;;1.13;;
10154;SDS011;5118;48.570;7.916;2022-07-04T14:59:21;6.00;;;1.02;;
10154;SDS011;5118;48.570;7.916;2022-07-04T15:02:29;2.33;;;1.10;;
10154;SDS011;5118;48.570;7.916;2022-07-04T15:05:31;3.13;;;0.95;;
10154;SDS011;5118;48.570;7.916;2022-07-04T15:08:33;1.92;;;1.13;;
10154;SDS011;5118;48.570;7.916;2022-07-04T15:11:35;2.15;;;1.10;;
10154;SDS011;5118;48.570;7.916;2022-07-04T15:14:40;1.58;;;1.15;;
10154;SDS011;5118;48.570;7.916;2022-07-04T15:17:43;1.27;;;1.00;;
10154;SDS011;5118;48.570;7.916;2022-07-04T15:20:45;1.90;;;1.00;;
10154;SDS011;5118;48.570;7.916;2022-07-04T15:24:04;2.28;;;0.93;;
10154;SDS011;5118;48.570;7.916;2022-07-04T15:27:08;2.38;;;1.00;;
10154;SDS011;5118;48.570;7.916;2022-07-04T15:30:12;2.88;;;1.10;;
10154;SDS011;5118;48.570;7.916;2022-07-04T15:33:14;1.00;;;1.00;;
10154;SDS011;5118;48.570;7.916;2022-07-04T15:36:18;1.00;;;0.95;;
10154;SDS011;5118;48.570;7.916;2022-07-04T15:39:20;1.92;;;1.20;;
10154;SDS011;5118;48.570;7.916;2022-07-04T15:42:23;3.28;;;1.20;;
10154;SDS011;5118;48.570;7.916;2022-07-04T15:45:27;2.08;;;0.98;;
10154;SDS011;5118;48.570;7.916;2022-07-04T15:48:30;1.27;;;1.17;;
10154;SDS011;5118;48.570;7.916;2022-07-04T15:51:32;2.83;;;1.30;;
10154;SDS011;5118;48.570;7.916;2022-07-04T15:54:34;1.30;;;1.20;;
10154;SDS011;5118;48.570;7.916;2022-07-04T15:57:37;2.58;;;1.08;;
10154;SDS011;5118;48.570;7.916;2022-07-04T16:00:40;1.90;;;1.00;;
10154;SDS011;5118;48.570;7.916;2022-07-04T16:03:43;2.97;;;0.93;;
10154;SDS011;5118;48.570;7.916;2022-07-04T16:06:46;2.40;;;0.90;;
10154;SDS011;5118;48.570;7.916;2022-07-04T16:09:48;1.15;;;1.00;;
10154;SDS011;5118;48.570;7.916;2022-07-04T16:13:15;3.50;;;1.20;;
10154;SDS011;5118;48.570;7.916;2022-07-04T16:16:12;2.80;;;1.38;;
10154;SDS011;5118;48.570;7.916;2022-07-04T16:19:08;2.25;;;1.30;;
10154;SDS011;5118;48.570;7.916;2022-07-04T16:22:10;1.52;;;1.20;;
10154;SDS011;5118;48.570;7.916;2022-07-04T16:25:12;1.50;;;1.40;;
10154;SDS011;5118;48.570;7.916;2022-07-04T16:28:14;1.75;;;1.50;;
10154;SDS011;5118;48.570;7.916;2022-07-04T16:31:17;1.85;;;1.30;;
10154;SDS011;5118;48.570;7.916;2022-07-04T16:34:20;2.45;;;1.48;;
10154;SDS011;5118;48.570;7.916;2022-07-04T16:37:22;3.47;;;1.40;;
10154;SDS011;5118;48.570;7.916;2022-07-04T16:40:24;1.40;;;1.30;;
10154;SDS011;5118;48.570;7.916;2022-07-04T16:43:26;2.30;;;1.30;;
10154;SDS011;5118;48.570;7.916;2022-07-04T16:46:29;1.92;;;1.40;;
10154;SDS011;5118;48.570;7.916;2022-07-04T16:49:32;3.45;;;1.50;;
10154;SDS011;5118;48.570;7.916;2022-07-04T16:52:34;4.65;;;1.63;;
10154;SDS011;5118;48.570;7.916;2022-07-04T16:55:36;3.15;;;1.30;;
10154;SDS011;5118;48.570;7.916;2022-07-04T16:58:38;1.95;;;1.20;;
10154;SDS011;5118;48.570;7.916;2022-07-04T17:01:34;3.33;;;1.35;;
10154;SDS011;5118;48.570;7.916;2022-07-04T17:04:30;5.72;;;1.20;;
10154;SDS011;5118;48.570;7.916;2022-07-04T17:07:32;3.22;;;1.48;;
10154;SDS011;5118;48.570;7.916;2022-07-04T17:10:34;2.75;;;1.40;;
10154;SDS011;5118;48.570;7.916;2022-07-04T17:13:38;2.03;;;1.30;;
10154;SDS011;5118;48.570;7.916;2022-07-04T17:16:44;3.10;;;1.30;;
10154;SDS011;5118;48.570;7.916;2022-07-04T17:19:47;1.95;;;1.17;;
10154;SDS011;5118;48.570;7.916;2022-07-04T17:22:49;3.88;;;1.40;;
10154;SDS011;5118;48.570;7.916;2022-07-04T17:25:45;2.83;;;1.17;;
10154;SDS011;5118;48.570;7.916;2022-07-04T17:28:47;2.38;;;1.25;;
10154;SDS011;5118;48.570;7.916;2022-07-04T17:31:50;1.30;;;1.15;;
10154;SDS011;5118;48.570;7.916;2022-07-04T17:34:53;2.38;;;1.17;;
10154;SDS011;5118;48.570;7.916;2022-07-04T17:37:55;1.25;;;1.15;;
10154;SDS011;5118;48.570;7.916;2022-07-04T17:40:57;2.42;;;1.20;;
10154;SDS011;5118;48.570;7.916;2022-07-04T17:44:16;1.23;;;1.02;;
10154;SDS011;5118;48.570;7.916;2022-07-04T17:47:21;1.08;;;1.08;;
10154;SDS011;5118;48.570;7.916;2022-07-04T17:50:24;2.83;;;1.08;;
10154;SDS011;5118;48.570;7.916;2022-07-04T17:53:26;1.35;;;1.20;;
10154;SDS011;5118;48.570;7.916;2022-07-04T17:56:28;1.33;;;1.23;;
10154;SDS011;5118;48.570;7.916;2022-07-04T17:59:30;2.08;;;1.40;;
10154;SDS011;5118;48.570;7.916;2022-07-04T18:02:33;1.77;;;1.30;;
10154;SDS011;5118;48.570;7.916;2022-07-04T18:05:36;2.15;;;1.15;;
10154;SDS011;5118;48.570;7.916;2022-07-04T18:08:38;3.28;;;1.40;;
10154;SDS011;5118;48.570;7.916;2022-07-04T18:11:40;1.67;;;1.20;;
10154;SDS011;5118;48.570;7.916;2022-07-04T18:14:42;3.25;;;1.10;;
10154;SDS011;5118;48.570;7.916;2022-07-04T18:17:45;1.20;;;1.10;;
10154;SDS011;5118;48.570;7.916;2022-07-04T18:20:48;3.00;;;1.23;;
10154;SDS011;5118;48.570;7.916;2022-07-04T18:23:50;1.27;;;1.05;;
10154;SDS011;5118;48.570;7.916;2022-07-04T18:26:52;3.80;;;1.60;;
10154;SDS011;5118;48.570;7.916;2022-07-04T18:29:54;10.38;;;1.48;;
10154;SDS011;5118;48.570;7.916;2022-07-04T18:32:57;7.70;;;1.60;;
10154;SDS011;5118;48.570;7.916;2022-07-04T18:36:00;5.65;;;1.42;;
10154;SDS011;5118;48.570;7.916;2022-07-04T18:39:03;5.18;;;1.30;;
10154;SDS011;5118;48.570;7.916;2022-07-04T18:42:05;4.03;;;1.27;;
10154;SDS011;5118;48.570;7.916;2022-07-04T18:45:18;5.32;;;1.30;;
10154;SDS011;5118;48.570;7.916;2022-07-04T18:48:21;2.30;;;1.20;;
10154;SDS011;5118;48.570;7.916;2022-07-04T18:51:25;4.20;;;1.30;;
10154;SDS011;5118;48.570;7.916;2022-07-04T18:54:29;2.78;;;1.17;;
10154;SDS011;5118;48.570;7.916;2022-07-04T18:57:32;3.33;;;1.30;;